Time;durP1;ratioP1;P1;durP2;ratioP2;P2;SDS_P1;SDS_P2;PMS_P1;PMS_P2;Temp;Humidity;BMP_temperature;BMP_pressure;BME280_temperature;BME280_humidity;BME280_pressure;Samples;Min_cycle;Max_cycle;Signal;HPM_P1;HPM_P2
2022/11/09 00:00:39;;;;;;;0.30;0.30;;;12.60;99.90;;;;;;6106029;23;20028;-87
2022/11/09 00:03:05;;;;;;;0.30;0.30;;;12.60;99.90;;;;;;6104883;23;20078;-87
2022/11/09 00:05:34;;;;;;;0.35;0.20;;;12.70;99.90;;;;;;6104591;23;20049;-88
2022/11/09 00:07:59;;;;;;;0.22;0.17;;;12.60;99.90;;;;;;6081422;23;20025;-87
2022/11/09 00:10:25;;;;;;;0.40;0.20;;;12.70;99.90;;;;;;6105324;23;20076;-87
2022/11/09 00:12:52;;;;;;;0.38;0.10;;;12.60;99.90;;;;;;6129197;23;20469;-87
2022/11/09 00:15:18;;;;;;;0.00;0.00;;;12.60;99.90;;;;;;6080819;23;20128;-87
2022/11/09 00:17:44;;;;;;;0.50;0.40;;;12.70;99.90;;;;;;6104974;23;20021;-88
2022/11/09 00:20:12;;;;;;;0.40;0.40;;;12.60;99.90;;;;;;6105839;23;20100;-87
2022/11/09 00:22:41;;;;;;;3.10;0.75;;;12.70;99.90;;;;;;6058625;23;20018;-87
2022/11/09 00:25:07;;;;;;;0.35;0.15;;;12.70;99.90;;;;;;6081893;23;20087;-87
2022/11/09 00:27:33;;;;;;;0.20;0.10;;;12.60;99.90;;;;;;6080523;23;20446;-87
2022/11/09 00:30:01;;;;;;;0.17;0.17;;;12.60;99.90;;;;;;6129305;23;20016;-87
2022/11/09 00:32:27;;;;;;;0.10;0.10;;;12.60;99.90;;;;;;6104957;23;20078;-87
2022/11/09 00:34:53;;;;;;;0.03;0.03;;;12.60;99.90;;;;;;6080986;23;20017;-87
2022/11/09 00:37:21;;;;;;;0.10;0.10;;;12.60;99.90;;;;;;6104486;23;20060;-87
2022/11/09 00:39:47;;;;;;;0.10;0.10;;;12.60;99.90;;;;;;6081594;23;20456;-87
2022/11/09 00:42:13;;;;;;;0.10;0.10;;;12.50;99.90;;;;;;6129949;23;20014;-87
2022/11/09 00:44:39;;;;;;;0.70;0.25;;;12.40;99.90;;;;;;6129846;23;20013;-87
2022/11/09 00:47:06;;;;;;;0.13;0.13;;;12.40;99.90;;;;;;6081028;23;20017;-87
2022/11/09 00:49:32;;;;;;;0.20;0.20;;;12.30;99.90;;;;;;6128735;23;20032;-87
2022/11/09 00:51:58;;;;;;;0.17;0.17;;;12.30;99.90;;;;;;6105536;23;20018;-87
2022/11/09 00:54:24;;;;;;;0.20;0.20;;;12.20;99.90;;;;;;6104427;23;20093;-88
2022/11/09 00:56:49;;;;;;;0.10;0.10;;;12.20;99.90;;;;;;6104945;23;20446;-87
2022/11/09 00:59:15;;;;;;;0.37;0.20;;;11.70;99.90;;;;;;6080086;23;20022;-87
2022/11/09 01:01:43;;;;;;;0.23;0.23;;;12.10;99.90;;;;;;6056883;23;20018;-87
2022/11/09 01:04:11;;;;;;;0.88;0.10;;;12.20;99.90;;;;;;6059303;23;20059;-87
2022/11/09 01:06:37;;;;;;;0.30;0.13;;;12.00;99.90;;;;;;6104928;23;20025;-87
2022/11/09 01:09:03;;;;;;;0.13;0.13;;;12.10;99.90;;;;;;6104660;23;20065;-87
2022/11/09 01:11:29;;;;;;;0.00;0.00;;;12.10;99.90;;;;;;6079905;23;20029;-87
2022/11/09 01:13:54;;;;;;;0.10;0.10;;;12.10;99.90;;;;;;6099335;23;20262;-87
2022/11/09 01:16:22;;;;;;;0.30;0.30;;;12.20;99.90;;;;;;6099798;23;20025;-87
2022/11/09 01:18:54;;;;;;;0.20;0.20;;;11.10;99.90;;;;;;6124270;23;20022;-87
2022/11/09 01:21:23;;;;;;;0.10;0.10;;;12.10;99.90;;;;;;6124038;23;20346;-89
2022/11/09 01:23:49;;;;;;;0.63;0.13;;;12.10;99.90;;;;;;6076355;23;20337;-87
2022/11/09 01:26:15;;;;;;;0.10;0.10;;;12.20;99.90;;;;;;6075894;23;20014;-87
2022/11/09 01:28:43;;;;;;;0.60;0.40;;;12.10;99.90;;;;;;6099089;23;20191;-87
2022/11/09 01:31:16;;;;;;;0.45;0.25;;;12.10;99.90;;;;;;6124315;23;20250;-87
2022/11/09 01:33:42;;;;;;;0.30;0.30;;;12.00;99.90;;;;;;6099548;23;20339;-87
2022/11/09 01:36:11;;;;;;;0.10;0.10;;;12.00;99.90;;;;;;6076192;23;20018;-87
2022/11/09 01:38:37;;;;;;;0.10;0.10;;;12.00;99.90;;;;;;6098815;23;20025;-87
2022/11/09 01:41:05;;;;;;;0.30;0.30;;;12.00;99.90;;;;;;6076023;23;20025;-88
2022/11/09 01:43:36;;;;;;;0.30;0.30;;;12.00;99.90;;;;;;6075808;23;20014;-87
2022/11/09 01:46:27;;;;;;;0.10;0.10;;;12.10;99.90;;;;;;6076191;23;20397;-87
2022/11/09 01:49:03;;;;;;;0.30;0.10;;;12.10;99.90;;;;;;6099404;23;20018;-88
2022/11/09 01:51:41;;;;;;;0.20;0.20;;;12.20;99.90;;;;;;6123665;23;20028;-87
2022/11/09 01:54:25;;;;;;;0.05;0.05;;;12.10;99.90;;;;;;6075902;23;20029;-88
2022/11/09 01:56:54;;;;;;;0.00;0.00;;;12.20;99.90;;;;;;6075840;23;20025;-87
2022/11/09 01:59:28;;;;;;;0.10;0.10;;;12.10;99.90;;;;;;6075362;23;20018;-87
2022/11/09 02:01:54;;;;;;;2.13;0.13;;;12.10;99.90;;;;;;6075516;23;20096;-88
2022/11/09 02:04:32;;;;;;;0.20;0.20;;;12.00;99.90;;;;;;6124023;23;20069;-87
2022/11/09 02:06:59;;;;;;;0.38;0.20;;;11.90;99.90;;;;;;6100014;23;20018;-87
2022/11/09 02:09:35;;;;;;;0.43;0.13;;;12.40;99.90;;;;;;6123414;23;20104;-87
2022/11/09 02:12:01;;;;;;;0.30;0.30;;;11.90;99.90;;;;;;6075622;23;20014;-87
2022/11/09 02:14:29;;;;;;;0.20;0.20;;;11.80;99.90;;;;;;6101143;23;20018;-87
2022/11/09 02:16:55;;;;;;;0.00;0.00;;;11.90;99.90;;;;;;6104876;23;20014;-87
2022/11/09 02:19:23;;;;;;;0.20;0.20;;;11.80;99.90;;;;;;6129207;23;20053;-87
2022/11/09 02:21:49;;;;;;;0.20;0.20;;;11.80;99.90;;;;;;6103912;23;20345;-87
2022/11/09 02:24:16;;;;;;;0.23;0.23;;;11.80;99.90;;;;;;6104160;23;20053;-87
2022/11/09 02:26:43;;;;;;;0.28;0.28;;;11.80;99.90;;;;;;6103694;23;20092;-87
2022/11/09 02:29:12;;;;;;;0.17;0.13;;;11.80;99.90;;;;;;6104042;23;20087;-87
2022/11/09 02:31:44;;;;;;;0.10;0.10;;;10.90;99.90;;;;;;6128262;23;20017;-87
2022/11/09 02:34:17;;;;;;;0.20;0.20;;;11.80;99.90;;;;;;6104057;23;20073;-87
2022/11/09 02:36:43;;;;;;;0.10;0.10;;;11.70;99.90;;;;;;6153356;23;20014;-87
2022/11/09 02:39:10;;;;;;;0.87;0.20;;;11.70;99.90;;;;;;6129049;23;20033;-87
2022/11/09 02:41:56;;;;;;;0.20;0.20;;;11.10;99.90;;;;;;6103624;23;20017;-87
2022/11/09 02:44:30;;;;;;;0.10;0.10;;;11.80;99.90;;;;;;6104544;23;20022;-87
2022/11/09 02:46:58;;;;;;;0.10;0.10;;;11.70;99.90;;;;;;6103802;23;20024;-87
2022/11/09 02:49:24;;;;;;;0.57;0.10;;;11.70;99.90;;;;;;6104679;23;20469;-87
2022/11/09 02:51:49;;;;;;;0.10;0.10;;;11.80;99.90;;;;;;6103764;23;20018;-87
2022/11/09 02:54:18;;;;;;;0.93;0.20;;;11.70;99.90;;;;;;6056639;23;20022;-87
2022/11/09 02:56:43;;;;;;;0.10;0.10;;;11.80;99.90;;;;;;6104174;23;20476;-87
2022/11/09 02:59:09;;;;;;;0.10;0.03;;;11.70;99.90;;;;;;6104621;23;20018;-87
2022/11/09 03:01:37;;;;;;;0.30;0.30;;;11.70;99.90;;;;;;6103606;23;20165;-88
2022/11/09 03:04:03;;;;;;;0.10;0.10;;;11.70;99.90;;;;;;6129016;23;20257;-87
2022/11/09 03:06:37;;;;;;;0.13;0.13;;;11.60;99.90;;;;;;6106524;23;20342;-87
2022/11/09 03:09:10;;;;;;;0.30;0.20;;;11.60;99.90;;;;;;6106567;23;20080;-87
2022/11/09 03:11:37;;;;;;;0.10;0.10;;;11.70;99.90;;;;;;6105497;23;20025;-88
2022/11/09 03:14:06;;;;;;;0.08;0.08;;;11.60;99.90;;;;;;6084939;23;20556;-87
2022/11/09 03:16:32;;;;;;;0.60;0.10;;;11.80;99.90;;;;;;6053905;23;20025;-87
2022/11/09 03:18:58;;;;;;;0.20;0.20;;;11.60;99.90;;;;;;6077256;23;20064;-87
2022/11/09 03:21:24;;;;;;;0.10;0.10;;;11.60;99.90;;;;;;6076213;23;20018;-87
2022/11/09 03:23:55;;;;;;;0.08;0.08;;;10.60;99.90;;;;;;6076839;23;20073;-87
2022/11/09 03:26:25;;;;;;;0.00;0.00;;;11.60;99.90;;;;;;6077047;23;20021;-87
2022/11/09 03:28:54;;;;;;;0.50;0.50;;;11.70;99.90;;;;;;6076838;23;20434;-88
2022/11/09 03:31:20;;;;;;;0.20;0.20;;;12.70;99.90;;;;;;6052760;23;20025;-87
2022/11/09 03:33:45;;;;;;;0.07;0.00;;;11.70;99.90;;;;;;6052667;23;20025;-87
2022/11/09 03:36:14;;;;;;;0.08;0.08;;;11.70;99.90;;;;;;6077384;23;20018;-87
2022/11/09 03:38:43;;;;;;;0.00;0.00;;;11.70;99.90;;;;;;6053130;23;20413;-88
2022/11/09 03:41:11;;;;;;;0.10;0.10;;;11.70;99.90;;;;;;6053875;23;20442;-87
2022/11/09 03:43:37;;;;;;;0.00;0.00;;;11.70;99.90;;;;;;6052884;23;20018;-88
2022/11/09 03:46:05;;;;;;;1.17;0.30;;;12.70;99.90;;;;;;6100352;23;20021;-87
2022/11/09 03:48:31;;;;;;;0.20;0.20;;;11.70;99.90;;;;;;6077003;23;20024;-88
2022/11/09 03:50:59;;;;;;;0.07;0.07;;;10.60;99.90;;;;;;6076366;23;20018;-87
2022/11/09 03:53:24;;;;;;;0.20;0.10;;;11.60;99.90;;;;;;6100808;23;20014;-87
2022/11/09 03:55:50;;;;;;;0.10;0.00;;;11.60;99.90;;;;;;6075504;23;20466;-88
2022/11/09 03:58:16;;;;;;;0.10;0.10;;;11.60;99.90;;;;;;6076450;23;20029;-87
2022/11/09 04:00:42;;;;;;;0.10;0.10;;;11.50;99.90;;;;;;6100724;23;20024;-87
2022/11/09 04:03:07;;;;;;;0.27;0.07;;;11.50;99.90;;;;;;6076267;23;20343;-87
2022/11/09 04:05:33;;;;;;;0.47;0.47;;;11.50;99.90;;;;;;6076564;23;20108;-88
2022/11/09 04:07:59;;;;;;;0.47;0.10;;;11.40;99.90;;;;;;6052972;23;20081;-88
2022/11/09 04:10:26;;;;;;;0.00;0.00;;;11.40;99.90;;;;;;6076995;23;20018;-87
2022/11/09 04:12:52;;;;;;;0.10;0.10;;;11.30;99.90;;;;;;6105867;23;20017;-87
2022/11/09 04:15:20;;;;;;;0.22;0.10;;;11.40;99.90;;;;;;6081699;23;20018;-87
2022/11/09 04:17:59;;;;;;;0.10;0.10;;;11.40;99.90;;;;;;6129396;23;20372;-88
2022/11/09 04:20:27;;;;;;;0.05;0.05;;;11.30;99.90;;;;;;6105831;23;20100;-87
2022/11/09 04:22:57;;;;;;;0.32;0.32;;;11.30;99.90;;;;;;6105566;23;20021;-87
2022/11/09 04:25:24;;;;;;;0.68;0.20;;;11.40;99.90;;;;;;6129637;23;20018;-87
2022/11/09 04:27:57;;;;;;;0.20;0.20;;;11.40;99.90;;;;;;6129346;23;20018;-87
2022/11/09 04:30:24;;;;;;;0.35;0.10;;;11.40;99.90;;;;;;6105061;23;20104;-87
2022/11/09 04:32:50;;;;;;;0.60;0.30;;;11.40;99.90;;;;;;6104644;23;20068;-87
2022/11/09 04:35:15;;;;;;;0.43;0.20;;;11.40;99.90;;;;;;6105371;23;20018;-87
2022/11/09 04:37:55;;;;;;;0.37;0.13;;;11.40;99.90;;;;;;6129100;23;20060;-87
2022/11/09 04:40:21;;;;;;;0.10;0.10;;;11.40;99.90;;;;;;6129927;23;20023;-87
2022/11/09 04:42:47;;;;;;;;;;;11.50;99.90;;;;;;6130085;23;20017;-87
2022/11/09 04:45:13;;;;;;;0.03;0.03;;;12.50;99.90;;;;;;6105604;23;20019;-88
2022/11/09 04:47:39;;;;;;;0.20;0.20;;;11.50;99.90;;;;;;6104731;23;20091;-88
2022/11/09 04:50:05;;;;;;;0.53;0.20;;;11.40;99.90;;;;;;6057325;23;20249;-88
2022/11/09 04:52:31;;;;;;;0.15;0.15;;;11.40;99.90;;;;;;6105619;23;20009;-87
2022/11/09 04:54:57;;;;;;;0.10;0.10;;;11.50;99.90;;;;;;6080557;23;20071;-87
2022/11/09 04:57:23;;;;;;;0.17;0.17;;;11.40;99.90;;;;;;6104847;23;20693;-87
2022/11/09 04:59:49;;;;;;;0.00;0.00;;;11.50;99.90;;;;;;6081042;23;20401;-87
2022/11/09 05:02:15;;;;;;;0.10;0.10;;;11.50;99.90;;;;;;6080788;23;20024;-87
2022/11/09 05:04:40;;;;;;;0.10;0.10;;;11.60;99.90;;;;;;6105148;23;20076;-87
2022/11/09 05:07:06;;;;;;;0.33;0.27;;;11.60;99.90;;;;;;6104474;23;20018;-87
2022/11/09 05:09:32;;;;;;;0.20;0.20;;;11.60;99.90;;;;;;6129254;23;20032;-87
2022/11/09 05:11:58;;;;;;;0.30;0.30;;;12.60;99.90;;;;;;6080497;23;20024;-87
2022/11/09 05:14:26;;;;;;;0.20;0.20;;;11.70;99.90;;;;;;6075856;23;20033;-88
2022/11/09 05:16:52;;;;;;;0.10;0.10;;;11.80;99.90;;;;;;6075813;23;20026;-89
2022/11/09 05:19:18;;;;;;;0.40;0.30;;;11.80;99.90;;;;;;6076090;23;20021;-87
2022/11/09 05:21:44;;;;;;;0.00;0.00;;;11.80;99.90;;;;;;6076140;23;20022;-87
2022/11/09 05:24:13;;;;;;;0.10;0.10;;;11.80;99.90;;;;;;6051631;23;20021;-87
2022/11/09 05:26:40;;;;;;;0.08;0.08;;;11.80;99.90;;;;;;6075242;23;20461;-87
2022/11/09 05:29:08;;;;;;;0.20;0.20;;;11.80;99.90;;;;;;6075185;23;20032;-88
2022/11/09 05:31:35;;;;;;;0.10;0.10;;;11.80;99.90;;;;;;6100166;23;20022;-87
2022/11/09 05:34:01;;;;;;;0.10;0.10;;;11.90;99.90;;;;;;6075277;23;20104;-87
2022/11/09 05:36:29;;;;;;;0.20;0.20;;;11.80;99.90;;;;;;6099611;23;20022;-88
2022/11/09 05:38:56;;;;;;;0.30;0.03;;;11.80;99.90;;;;;;6076187;23;20080;-89
2022/11/09 05:41:22;;;;;;;0.63;0.30;;;11.80;99.90;;;;;;6076173;23;20022;-88
2022/11/09 05:43:48;;;;;;;0.25;0.10;;;11.00;99.90;;;;;;6076059;23;20017;-87
2022/11/09 05:46:15;;;;;;;0.10;0.00;;;11.80;99.90;;;;;;6074750;23;20014;-89
2022/11/09 05:48:42;;;;;;;0.20;0.20;;;11.70;99.90;;;;;;6075664;23;20253;-87
2022/11/09 05:51:10;;;;;;;0.28;0.20;;;11.70;99.90;;;;;;6051548;23;20025;-87
2022/11/09 05:53:36;;;;;;;0.60;0.28;;;11.70;99.90;;;;;;6075840;23;20014;-87
2022/11/09 05:56:06;;;;;;;0.00;0.00;;;11.70;99.90;;;;;;6075299;23;20018;-87
2022/11/09 05:58:35;;;;;;;0.35;0.30;;;11.60;99.90;;;;;;6075562;23;20104;-87
2022/11/09 06:01:13;;;;;;;0.10;0.10;;;11.60;99.90;;;;;;6099051;23;20084;-87
2022/11/09 06:03:40;;;;;;;0.20;0.20;;;11.60;99.90;;;;;;6100077;23;20022;-87
2022/11/09 06:06:07;;;;;;;0.03;0.03;;;11.50;99.90;;;;;;6074593;23;20532;-88
2022/11/09 06:08:33;;;;;;;0.10;0.10;;;11.50;99.90;;;;;;6075951;23;20105;-87
2022/11/09 06:11:10;;;;;;;0.00;0.00;;;11.50;99.90;;;;;;6075290;23;20072;-87
2022/11/09 06:13:36;;;;;;;;;;;11.50;99.90;;;;;;6087834;23;20021;-87
2022/11/09 06:16:04;;;;;;;0.52;0.10;;;11.40;99.90;;;;;;6079986;23;19917;-88
2022/11/09 06:18:31;;;;;;;0.20;0.10;;;11.50;99.90;;;;;;6104880;23;20477;-87
2022/11/09 06:21:03;;;;;;;0.17;0.08;;;11.40;99.90;;;;;;6103516;23;20018;-87
2022/11/09 06:23:29;;;;;;;0.30;0.30;;;11.40;99.90;;;;;;6104317;23;20108;-88
2022/11/09 06:26:01;;;;;;;;;;;11.30;99.90;;;;;;6129221;23;20397;-87
2022/11/09 06:28:28;;;;;;;0.10;0.05;;;11.30;99.90;;;;;;6128938;23;19923;-87
2022/11/09 06:30:58;;;;;;;0.10;0.10;;;11.00;99.90;;;;;;6104384;23;20092;-88
2022/11/09 06:33:25;;;;;;;0.20;0.20;;;11.30;99.90;;;;;;6127766;23;20024;-88
2022/11/09 06:35:51;;;;;;;0.30;0.10;;;11.40;99.90;;;;;;6104310;23;20044;-88
2022/11/09 06:38:16;;;;;;;0.10;0.10;;;11.30;99.90;;;;;;6104785;23;20455;-88
2022/11/09 06:40:42;;;;;;;0.00;0.00;;;11.20;99.90;;;;;;6106471;23;20025;-88
2022/11/09 06:43:08;;;;;;;0.20;0.20;;;11.20;99.90;;;;;;6105923;23;20529;-85
2022/11/09 06:45:43;;;;;;;0.43;0.05;;;11.20;99.90;;;;;;6132343;23;20013;-89
2022/11/09 06:48:10;;;;;;;0.47;0.10;;;11.20;99.90;;;;;;6130683;23;20029;-85
2022/11/09 06:50:35;;;;;;;0.10;0.10;;;11.20;99.90;;;;;;6106500;23;20049;-88
2022/11/09 06:53:04;;;;;;;0.23;0.10;;;11.20;99.90;;;;;;6105231;23;20021;-84
2022/11/09 06:55:31;;;;;;;0.15;0.10;;;11.10;99.90;;;;;;6104694;23;20018;-84
2022/11/09 06:57:59;;;;;;;1.38;0.30;;;11.20;99.90;;;;;;6157158;23;20088;-86
2022/11/09 07:00:27;;;;;;;0.10;0.10;;;11.10;99.90;;;;;;6158027;23;20303;-87
2022/11/09 07:02:55;;;;;;;0.00;0.00;;;11.20;99.90;;;;;;6106023;23;20107;-90
2022/11/09 07:05:21;;;;;;;0.10;0.10;;;11.10;99.90;;;;;;6105433;23;20430;-90
2022/11/09 07:07:50;;;;;;;0.10;0.10;;;11.20;99.90;;;;;;6106260;23;20092;-87
2022/11/09 07:10:18;;;;;;;0.00;0.00;;;11.10;99.90;;;;;;6105852;23;20068;-88
2022/11/09 07:12:54;;;;;;;0.00;0.00;;;11.20;99.90;;;;;;6105765;23;20490;-89
2022/11/09 07:15:20;;;;;;;0.52;0.00;;;11.40;99.90;;;;;;6104767;23;20097;-88
2022/11/09 07:17:48;;;;;;;0.10;0.10;;;11.20;99.90;;;;;;6105227;23;20402;-88
2022/11/09 07:20:15;;;;;;;0.10;0.08;;;11.30;99.90;;;;;;6129385;23;20442;-87
2022/11/09 07:22:40;;;;;;;0.00;0.00;;;11.20;99.90;;;;;;6130121;23;20093;-85
2022/11/09 07:25:11;;;;;;;0.10;0.10;;;11.20;99.90;;;;;;6130195;23;20056;-87
2022/11/09 07:27:37;;;;;;;0.00;0.00;;;11.30;99.90;;;;;;6129549;23;20016;-85
2022/11/09 07:30:04;;;;;;;0.10;0.10;;;10.50;99.90;;;;;;6105448;23;20017;-88
2022/11/09 07:32:37;;;;;;;0.10;0.10;;;11.30;99.90;;;;;;6129068;23;20072;-87
2022/11/09 07:35:09;;;;;;;0.03;0.03;;;11.40;99.90;;;;;;6106060;23;20020;-87
2022/11/09 07:37:36;;;;;;;0.00;0.00;;;11.10;99.90;;;;;;6105428;23;20021;-87
2022/11/09 07:40:04;;;;;;;0.00;0.00;;;11.40;99.90;;;;;;6106540;23;20092;-87
2022/11/09 07:42:32;;;;;;;0.20;0.20;;;11.30;99.90;;;;;;6105493;23;20014;-88
2022/11/09 07:45:03;;;;;;;0.10;0.10;;;11.30;99.90;;;;;;6105614;23;20073;-89
2022/11/09 07:47:29;;;;;;;0.20;0.10;;;10.60;99.90;;;;;;6081276;23;20020;-86
2022/11/09 07:49:55;;;;;;;0.13;0.13;;;11.30;99.90;;;;;;6105483;23;20010;-87
2022/11/09 07:52:23;;;;;;;0.10;0.10;;;11.50;99.90;;;;;;6081019;23;20009;-87
2022/11/09 07:54:49;;;;;;;0.00;0.00;;;11.50;99.90;;;;;;6082007;23;20020;-88
2022/11/09 07:57:17;;;;;;;0.07;0.07;;;11.50;99.90;;;;;;6105298;23;20013;-89
2022/11/09 07:59:43;;;;;;;0.20;0.20;;;11.50;99.90;;;;;;6105828;23;20371;-87
2022/11/09 08:02:09;;;;;;;0.15;0.03;;;11.40;99.90;;;;;;6130074;23;20376;-87
2022/11/09 08:04:38;;;;;;;0.00;0.00;;;11.50;99.90;;;;;;6081567;23;20025;-86
2022/11/09 08:07:06;;;;;;;0.20;0.20;;;10.80;99.90;;;;;;6103057;23;20025;-85
2022/11/09 08:09:32;;;;;;;0.05;0.05;;;11.60;99.90;;;;;;6079613;23;20085;-85
2022/11/09 08:11:58;;;;;;;0.10;0.10;;;11.80;99.90;;;;;;6081255;23;20095;-84
2022/11/09 08:14:23;;;;;;;0.23;0.23;;;11.80;99.90;;;;;;6103870;23;20155;-85
2022/11/09 08:16:49;;;;;;;0.10;0.10;;;11.90;99.90;;;;;;6057278;23;20072;-84
2022/11/09 08:19:15;;;;;;;0.10;0.10;;;11.90;99.90;;;;;;6081095;23;20096;-84
2022/11/09 08:21:40;;;;;;;0.87;0.37;;;11.90;99.90;;;;;;6080988;23;20049;-84
2022/11/09 08:24:06;;;;;;;0.07;0.07;;;12.00;99.90;;;;;;6081126;23;20040;-84
2022/11/09 08:26:32;;;;;;;1.70;0.17;;;12.00;99.90;;;;;;6104954;23;20018;-84
2022/11/09 08:28:58;;;;;;;0.03;0.03;;;12.10;99.90;;;;;;6129826;23;20049;-84
2022/11/09 08:31:24;;;;;;;0.30;0.10;;;12.10;99.90;;;;;;6104916;23;20018;-85
2022/11/09 08:33:52;;;;;;;0.20;0.20;;;12.20;99.90;;;;;;6082779;23;20472;-87
2022/11/09 08:36:38;;;;;;;0.23;0.10;;;12.20;99.90;;;;;;6129891;23;20057;-89
2022/11/09 08:39:07;;;;;;;0.20;0.20;;;12.20;99.90;;;;;;6081226;23;20446;-90
2022/11/09 08:41:50;;;;;;;0.08;0.05;;;12.30;99.90;;;;;;6114930;23;20025;-86
2022/11/09 08:44:30;;;;;;;0.22;0.22;;;11.20;99.90;;;;;;6106143;23;20013;-89
2022/11/09 08:46:56;;;;;;;0.20;0.00;;;12.20;99.90;;;;;;6083155;23;20438;-88
2022/11/09 08:49:25;;;;;;;0.35;0.00;;;12.20;99.90;;;;;;6129499;23;20017;-87
2022/11/09 08:51:51;;;;;;;0.10;0.10;;;12.30;99.90;;;;;;6081275;23;20119;-87
2022/11/09 08:54:17;;;;;;;0.20;0.20;;;11.70;99.90;;;;;;6104637;23;20346;-87
2022/11/09 08:56:45;;;;;;;0.00;0.00;;;12.40;99.90;;;;;;6104227;23;20032;-87
2022/11/09 08:59:11;;;;;;;0.10;0.10;;;12.40;99.90;;;;;;6129892;23;20075;-86
2022/11/09 09:01:37;;;;;;;0.17;0.17;;;12.40;99.90;;;;;;6128313;23;20017;-87
2022/11/09 09:04:02;;;;;;;0.10;0.10;;;12.50;99.90;;;;;;6105551;23;20021;-86
2022/11/09 09:06:28;;;;;;;0.03;0.03;;;12.60;99.90;;;;;;6104489;23;20021;-87
2022/11/09 09:08:59;;;;;;;0.20;0.10;;;12.60;99.90;;;;;;6129399;23;20025;-89
2022/11/09 09:11:24;;;;;;;0.13;0.10;;;12.60;99.90;;;;;;6104359;23;20018;-88
2022/11/09 09:13:50;;;;;;;0.10;0.10;;;12.60;99.90;;;;;;6104328;23;20405;-86
2022/11/09 09:16:16;;;;;;;0.77;0.15;;;12.70;99.90;;;;;;6103951;23;20446;-88
2022/11/09 09:18:42;;;;;;;0.10;0.10;;;12.70;99.90;;;;;;6079958;23;20024;-86
2022/11/09 09:21:12;;;;;;;0.00;0.00;;;12.70;99.90;;;;;;6104137;23;20029;-84
2022/11/09 09:23:40;;;;;;;0.00;0.00;;;12.80;99.90;;;;;;6127963;23;20153;-86
2022/11/09 09:26:06;;;;;;;0.08;0.08;;;12.30;99.90;;;;;;6077897;23;20346;-87
2022/11/09 09:28:34;;;;;;;0.10;0.10;;;12.80;99.90;;;;;;6129038;23;20024;-89
2022/11/09 09:31:05;;;;;;;0.57;0.50;;;13.00;99.90;;;;;;6129455;23;20021;-89
2022/11/09 09:33:37;;;;;;;0.08;0.03;;;13.10;99.90;;;;;;6128746;23;20100;-90
2022/11/09 09:36:03;;;;;;;0.10;0.10;;;13.10;99.90;;;;;;6110570;23;20021;-84
2022/11/09 09:39:35;;;;;;;0.20;0.10;;;13.30;99.90;;;;;;6129223;23;20024;-91
2022/11/09 09:43:03;;;;;;;0.28;0.10;;;13.30;99.90;;;;;;5959706;23;20016;-90
2022/11/09 09:45:54;;;;;;;0.10;0.10;;;14.50;99.90;;;;;;5974985;23;20053;-92
2022/11/09 09:49:06;;;;;;;0.08;0.08;;;13.70;99.90;;;;;;6060159;23;20021;-89
2022/11/09 09:52:23;;;;;;;;;;;;;;;;;;;;;
2022/11/09 09:55:10;;;;;;;0.22;0.20;;;14.30;99.90;;;;;;6042905;23;20023;-89
2022/11/09 09:58:04;;;;;;;0.38;0.38;;;14.10;99.90;;;;;;6126058;23;20017;-91
2022/11/09 10:00:32;;;;;;;0.00;0.00;;;14.20;99.90;;;;;;6105375;23;20449;-86
2022/11/09 10:02:59;;;;;;;0.52;0.13;;;14.30;99.90;;;;;;6111953;23;20014;-86
2022/11/09 10:05:41;;;;;;;0.25;0.00;;;14.30;99.90;;;;;;6104208;23;20342;-88
2022/11/09 10:08:22;;;;;;;2.85;0.60;;;14.20;99.90;;;;;;6104910;23;20013;-91
2022/11/09 10:11:06;;;;;;;1.30;0.57;;;13.60;99.90;;;;;;6104267;23;20468;-89
2022/11/09 10:13:52;;;;;;;0.20;0.20;;;14.60;99.90;;;;;;6095336;23;20026;-91
2022/11/09 10:16:30;;;;;;;0.13;0.10;;;14.50;99.90;;;;;;6076154;23;20077;-88
2022/11/09 10:19:31;;;;;;;0.10;0.10;;;14.40;99.90;;;;;;6075762;23;20462;-89
2022/11/09 10:22:28;;;;;;;0.20;0.20;;;14.20;99.90;;;;;;6075378;23;20024;-89
2022/11/09 10:25:02;;;;;;;0.10;0.10;;;13.90;99.90;;;;;;6075768;23;20072;-88
2022/11/09 10:27:45;;;;;;;0.73;0.38;;;13.90;99.90;;;;;;6076466;23;20018;-88
2022/11/09 10:30:15;;;;;;;0.17;0.17;;;13.80;99.90;;;;;;6075978;23;20014;-89
2022/11/09 10:32:44;;;;;;;0.20;0.20;;;14.00;99.90;;;;;;6076960;23;20014;-86
2022/11/09 10:35:28;;;;;;;2.45;0.22;;;14.30;99.90;;;;;;6075025;23;20021;-86
2022/11/09 10:37:56;;;;;;;0.20;0.15;;;14.50;99.90;;;;;;6075352;23;20346;-86
2022/11/09 10:40:41;;;;;;;0.98;0.20;;;14.90;99.90;;;;;;6051672;23;20022;-87
2022/11/09 10:43:12;;;;;;;0.15;0.15;;;15.10;99.90;;;;;;6076128;23;20021;-87
2022/11/09 10:45:42;;;;;;;0.10;0.10;;;15.00;99.90;;;;;;6075453;23;20018;-87
2022/11/09 10:48:30;;;;;;;0.10;0.10;;;14.90;99.90;;;;;;6075924;23;20026;-89
2022/11/09 10:50:57;;;;;;;0.52;0.28;;;14.60;99.90;;;;;;6075188;23;20021;-88
2022/11/09 10:53:39;;;;;;;0.65;0.60;;;14.40;99.90;;;;;;6098708;23;20022;-90
2022/11/09 10:56:19;;;;;;;0.20;0.20;;;14.20;99.90;;;;;;6099059;23;20342;-93
2022/11/09 10:58:54;;;;;;;0.28;0.08;;;14.00;99.90;;;;;;6075353;23;20014;-92
2022/11/09 11:01:21;;;;;;;0.20;0.20;;;13.90;99.90;;;;;;6075352;23;20592;-92
2022/11/09 11:03:56;;;;;;;0.10;0.10;;;13.80;99.90;;;;;;6075963;23;20053;-92
2022/11/09 11:06:26;;;;;;;0.20;0.20;;;13.80;99.90;;;;;;6052541;23;20022;-94
2022/11/09 11:09:04;;;;;;;0.35;0.25;;;13.80;99.90;;;;;;6076058;23;20025;-93
2022/11/09 11:11:33;;;;;;;0.20;0.20;;;13.90;99.90;;;;;;6075500;23;20124;-93
2022/11/09 11:14:22;;;;;;;0.85;0.20;;;14.00;99.90;;;;;;6075791;23;20014;-92
2022/11/09 11:16:55;;;;;;;0.10;0.10;;;14.10;99.90;;;;;;6099814;23;20026;-93
2022/11/09 11:19:40;;;;;;;0.10;0.10;;;13.80;99.90;;;;;;6076386;23;20350;-93
2022/11/09 11:22:32;;;;;;;0.45;0.40;;;14.10;99.90;;;;;;6075712;23;20049;-92
2022/11/09 11:25:36;;;;;;;0.13;0.13;;;14.10;99.90;;;;;;6099302;23;20109;-92
2022/11/09 11:28:16;;;;;;;0.32;0.10;;;14.80;99.90;;;;;;6055219;23;20490;-92
2022/11/09 11:30:50;;;;;;;0.15;0.15;;;13.50;99.90;;;;;;6077941;23;20037;-92
2022/11/09 11:33:20;;;;;;;0.30;0.13;;;14.30;99.90;;;;;;6077951;23;20053;-92
2022/11/09 11:36:22;;;;;;;0.20;0.20;;;14.20;99.90;;;;;;6078630;23;20096;-94
2022/11/09 11:39:48;;;;;;;;;;;;;;;;;;;;;
2022/11/09 11:46:52;;;;;;;0.10;0.10;;;14.00;99.90;;;;;;6024406;23;20033;-92
2022/11/09 12:01:08;;;;;;;0.20;0.10;;;13.30;99.90;;;;;;5872208;24;20101;-93
2022/11/09 12:03:55;;;;;;;0.30;0.20;;;13.30;99.90;;;;;;5834946;24;20068;-91
2022/11/09 12:06:58;;;;;;;0.17;0.17;;;13.60;99.90;;;;;;5978628;23;20513;-91
2022/11/09 12:09:26;;;;;;;0.20;0.20;;;13.50;99.90;;;;;;5990506;23;20027;-92
2022/11/09 12:11:58;;;;;;;0.28;0.03;;;13.60;99.90;;;;;;5989859;23;20023;-90
2022/11/09 12:14:45;;;;;;;0.30;0.30;;;13.60;99.90;;;;;;6007877;23;20026;-90
2022/11/09 12:17:41;;;;;;;0.20;0.20;;;13.70;99.90;;;;;;6041539;23;20387;-90
2022/11/09 12:20:37;;;;;;;0.28;0.20;;;13.00;99.90;;;;;;6082376;23;20093;-92
2022/11/09 12:23:29;;;;;;;0.00;0.00;;;13.60;99.90;;;;;;6077466;23;20018;-88
2022/11/09 12:25:55;;;;;;;0.10;0.10;;;13.60;99.90;;;;;;6076136;23;20141;-93
2022/11/09 12:28:54;;;;;;;0.10;0.10;;;13.60;99.90;;;;;;6077248;23;20049;-93
2022/11/09 12:31:49;;;;;;;0.50;0.25;;;13.50;99.90;;;;;;6077299;23;20018;-94
2022/11/09 12:35:00;;;;;;;0.10;0.10;;;13.50;99.90;;;;;;6074338;23;20018;-94
2022/11/09 12:38:11;;;;;;;0.28;0.28;;;13.40;99.90;;;;;;6025788;23;20029;-93
2022/11/09 12:40:59;;;;;;;0.10;0.10;;;13.40;99.90;;;;;;6101419;23;20029;-95
2022/11/09 12:44:05;;;;;;;;;;;;;;;;;;;;;
2022/11/09 12:46:38;;;;;;;0.10;0.10;;;13.60;99.90;;;;;;6101968;23;20014;-93
2022/11/09 12:49:30;;;;;;;0.10;0.10;;;13.50;99.90;;;;;;6101356;23;20323;-94
2022/11/09 12:52:28;;;;;;;0.35;0.20;;;13.50;99.90;;;;;;6076537;23;20099;-94
2022/11/09 12:55:06;;;;;;;0.25;0.20;;;13.50;99.90;;;;;;6100541;23;20024;-94
2022/11/09 13:00:43;;;;;;;0.30;0.25;;;13.40;99.90;;;;;;6102262;23;20021;-94
2022/11/09 13:03:42;;;;;;;0.55;0.15;;;13.30;99.90;;;;;;6077937;23;20014;-92
2022/11/09 13:06:14;;;;;;;0.10;0.10;;;13.30;99.90;;;;;;6077861;23;20053;-93
2022/11/09 13:09:04;;;;;;;0.30;0.30;;;13.20;99.90;;;;;;6055318;23;20014;-93
2022/11/09 13:15:36;;;;;;;;;;;13.20;99.90;;;;;;6149646;23;20091;-93
2022/11/09 13:21:27;;;;;;;0.20;0.20;;;13.10;99.90;;;;;;6156966;23;20020;-92
2022/11/09 13:24:37;;;;;;;0.30;0.30;;;13.30;99.90;;;;;;6131343;23;20606;-94
2022/11/09 13:27:28;;;;;;;0.10;0.10;;;13.30;99.90;;;;;;6083978;23;20466;-93
2022/11/09 13:29:54;;;;;;;0.32;0.25;;;13.30;99.90;;;;;;6106414;23;20022;-88
2022/11/09 13:32:32;;;;;;;0.30;0.30;;;13.40;99.90;;;;;;6105752;23;20454;-91
2022/11/09 13:35:00;;;;;;;0.10;0.10;;;12.90;99.90;;;;;;6105912;23;20020;-92
2022/11/09 13:37:41;;;;;;;0.30;0.20;;;13.50;99.90;;;;;;6105811;23;20024;-91
2022/11/09 13:40:37;;;;;;;0.10;0.10;;;13.80;99.90;;;;;;6105409;23;20337;-91
2022/11/09 13:43:19;;;;;;;0.00;0.00;;;14.10;99.90;;;;;;6130628;23;20022;-93